createdAt,value
2018-01-23T00:00:13.848Z,101945.30
2018-01-23T00:02:42.165Z,101931.41
2018-01-23T00:05:10.520Z,101933.98
2018-01-23T00:07:38.844Z,101937.07
2018-01-23T00:10:07.142Z,101942.97
2018-01-23T00:12:36.268Z,101938.87
2018-01-23T00:15:04.946Z,101940.44
2018-01-23T00:17:33.315Z,101939.61
2018-01-23T00:20:01.627Z,101953.23
2018-01-23T00:22:30.097Z,101950.92
2018-01-23T00:24:58.384Z,101947.84
2018-01-23T00:27:26.684Z,101947.08
2018-01-23T00:29:55.547Z,101953.97
2018-01-23T00:32:23.859Z,101959.03
2018-01-23T00:34:52.216Z,101965.09
2018-01-23T00:37:20.528Z,101959.51
2018-01-23T00:39:48.838Z,101962.44
2018-01-23T00:42:17.149Z,101962.67
2018-01-23T00:44:45.471Z,101962.48
2018-01-23T00:47:14.548Z,101951.58
2018-01-23T00:49:42.838Z,101956.56
2018-01-23T00:52:11.140Z,101959.95
2018-01-23T00:54:39.446Z,101957.87
2018-01-23T00:57:07.738Z,101957.45
2018-01-23T00:59:36.809Z,101964.36
2018-01-23T01:02:05.339Z,101968.69
2018-01-23T01:04:34.423Z,101977.25
2018-01-23T01:07:03.814Z,101971.84
2018-01-23T01:09:32.882Z,101966.45
2018-01-23T01:12:01.198Z,101970.02
2018-01-23T01:14:29.506Z,101969.77
2018-01-23T01:16:58.822Z,101971.48
2018-01-23T01:19:27.307Z,101973.46
2018-01-23T01:21:55.626Z,101978.59
2018-01-23T01:24:23.918Z,101975.02
2018-01-23T01:26:52.221Z,101974.80
2018-01-23T01:29:21.278Z,101970.72
2018-01-23T01:31:49.633Z,101973.65
2018-01-23T01:34:18.799Z,101979.23
2018-01-23T01:36:47.122Z,101980.64
2018-01-23T01:39:15.477Z,101981.05
2018-01-23T01:41:43.888Z,101986.22
2018-01-23T01:44:12.245Z,101993.06
2018-01-23T01:46:41.365Z,102001.80
2018-01-23T01:49:09.659Z,102001.07
2018-01-23T01:51:38.026Z,102004.17
2018-01-23T01:54:06.349Z,101999.84
2018-01-23T01:56:35.447Z,102000.26
2018-01-23T01:59:03.755Z,102000.37
2018-01-23T02:01:33.064Z,102006.78
2018-01-23T02:04:02.503Z,102008.04
2018-01-23T02:06:30.806Z,102010.96
2018-01-23T02:08:59.177Z,102018.52
2018-01-23T02:11:28.204Z,102022.44
2018-01-23T02:13:56.567Z,102019.02
2018-01-23T02:16:24.962Z,102014.64
2018-01-23T02:18:53.248Z,102018.13
2018-01-23T02:21:21.598Z,102020.64
2018-01-23T02:23:49.887Z,102018.39
2018-01-23T02:26:18.189Z,102018.47
2018-01-23T02:28:46.502Z,102024.38
2018-01-23T02:31:15.715Z,102028.70
2018-01-23T02:33:44.774Z,102041.28
2018-01-23T02:36:13.130Z,102031.70
2018-01-23T02:38:41.459Z,102036.20
2018-01-23T02:41:09.760Z,102032.70
2018-01-23T02:43:38.832Z,102036.53
2018-01-23T02:46:07.149Z,102045.28
2018-01-23T02:48:36.370Z,102043.72
2018-01-23T02:51:04.680Z,102050.21
2018-01-23T02:53:33.146Z,102053.10
2018-01-23T02:56:01.878Z,102051.70
2018-01-23T02:58:30.175Z,102053.29
2018-01-23T03:00:59.360Z,102060.70
2018-01-23T03:03:27.624Z,102052.95
2018-01-23T03:05:56.487Z,102056.03
2018-01-23T03:08:24.786Z,102053.47
2018-01-23T03:10:53.133Z,102048.48
2018-01-23T03:13:21.390Z,102053.31
2018-01-23T03:15:49.690Z,102056.23
2018-01-23T03:18:19.304Z,102056.50
2018-01-23T03:20:50.550Z,102056.50
2018-01-23T03:23:20.598Z,102056.58
2018-01-23T03:25:48.919Z,102059.89
2018-01-23T03:28:17.292Z,102056.66
2018-01-23T03:30:45.582Z,102046.73
2018-01-23T03:33:13.944Z,102044.73
2018-01-23T03:35:42.225Z,102042.15
2018-01-23T03:38:10.551Z,102038.36
2018-01-23T03:40:38.863Z,102028.26
2018-01-23T03:43:07.170Z,102034.92
2018-01-23T03:45:35.477Z,102038.95
2018-01-23T03:48:03.813Z,102043.34
2018-01-23T03:50:32.092Z,102042.88
2018-01-23T03:53:00.476Z,102047.11
2018-01-23T03:55:28.816Z,102047.00
2018-01-23T03:57:57.120Z,102043.39
2018-01-23T04:00:25.446Z,102042.70
2018-01-23T04:02:54.520Z,102042.36
2018-01-23T04:05:22.831Z,102047.42
2018-01-23T04:07:51.182Z,102046.20
2018-01-23T04:10:19.477Z,102054.71
2018-01-23T04:12:47.896Z,102058.55
2018-01-23T04:15:16.191Z,102057.86
2018-01-23T04:17:44.492Z,102061.97
2018-01-23T04:20:14.785Z,102061.50
2018-01-23T04:22:43.078Z,102065.19
2018-01-23T04:25:11.361Z,102056.89
2018-01-23T04:27:41.256Z,102064.61
2018-01-23T04:30:09.576Z,102063.54
2018-01-23T04:32:38.662Z,102068.11
2018-01-23T04:35:07.100Z,102072.67
2018-01-23T04:37:35.417Z,102067.61
2018-01-23T04:40:03.724Z,102067.27
2018-01-23T04:42:33.447Z,102072.86
2018-01-23T04:45:01.742Z,102065.22
2018-01-23T04:47:30.098Z,102064.37
2018-01-23T04:49:59.225Z,102059.67
2018-01-23T04:52:28.676Z,102054.66
2018-01-23T04:54:57.215Z,102057.94
2018-01-23T04:57:26.020Z,102064.70
2018-01-23T04:59:54.306Z,102066.53
2018-01-23T05:02:22.611Z,102067.17
2018-01-23T05:04:51.772Z,102066.76
2018-01-23T05:07:20.160Z,102067.06
2018-01-23T05:09:48.452Z,102074.20
2018-01-23T05:12:16.745Z,102075.53
2018-01-23T05:14:45.040Z,102075.34
2018-01-23T05:17:13.337Z,102068.77
2018-01-23T05:19:41.630Z,102072.91
2018-01-23T05:22:10.766Z,102067.89
2018-01-23T05:24:39.145Z,102063.79
2018-01-23T05:27:07.460Z,102067.05
2018-01-23T05:29:35.743Z,102062.88
2018-01-23T05:32:04.072Z,102066.41
2018-01-23T05:34:34.122Z,102064.63
2018-01-23T05:37:03.409Z,102052.92
2018-01-23T05:39:31.826Z,102051.59
2018-01-23T05:42:01.043Z,102054.91
2018-01-23T05:44:29.379Z,102049.92
2018-01-23T05:46:57.767Z,102056.00
2018-01-23T05:49:26.086Z,102057.67
2018-01-23T05:51:55.162Z,102048.78
2018-01-23T05:54:23.463Z,102051.82
2018-01-23T05:56:51.948Z,102047.34
2018-01-23T05:59:20.253Z,102051.59
2018-01-23T06:01:48.625Z,102050.67
2018-01-23T06:04:18.089Z,102050.00
2018-01-23T06:06:46.464Z,102049.95
2018-01-23T06:09:14.767Z,102048.13
2018-01-23T06:11:43.890Z,102043.72
2018-01-23T06:14:12.204Z,102045.36
2018-01-23T06:16:41.371Z,102047.00
2018-01-23T06:19:09.748Z,102041.30
2018-01-23T06:21:38.647Z,102040.12
2018-01-23T06:24:06.996Z,102039.20
2018-01-23T06:26:35.381Z,102044.80
2018-01-23T06:29:03.690Z,102048.14
2018-01-23T06:31:32.021Z,102043.42
2018-01-23T06:34:02.047Z,102047.75
2018-01-23T06:36:31.194Z,102045.09
2018-01-23T06:38:59.547Z,102049.92
2018-01-23T06:41:27.925Z,102052.42
2018-01-23T06:43:57.858Z,102049.23
2018-01-23T06:46:26.163Z,102051.82
2018-01-23T06:48:54.460Z,102051.52
2018-01-23T06:51:24.092Z,102049.84
2018-01-23T06:53:53.326Z,102052.23
2018-01-23T06:56:21.644Z,102049.39
2018-01-23T06:58:49.951Z,102052.58
2018-01-23T07:01:18.259Z,102053.58
2018-01-23T07:03:46.581Z,102059.73
2018-01-23T07:06:14.869Z,102056.23
2018-01-23T07:08:43.171Z,102050.19
2018-01-23T07:11:12.217Z,102048.17
2018-01-23T07:13:40.517Z,102050.57
2018-01-23T07:16:08.826Z,102047.27
2018-01-23T07:18:37.119Z,102048.62
2018-01-23T07:21:05.405Z,102058.78
2018-01-23T07:23:34.481Z,102064.36
2018-01-23T07:26:02.793Z,102063.48
2018-01-23T07:28:31.864Z,102071.31
2018-01-23T07:31:00.179Z,102065.34
2018-01-23T07:33:29.267Z,102069.45
2018-01-23T07:35:58.341Z,102078.19
2018-01-23T07:38:26.645Z,102083.09
2018-01-23T07:40:54.957Z,102079.63
2018-01-23T07:43:23.255Z,102081.84
2018-01-23T07:45:51.555Z,102083.02
2018-01-23T07:48:19.883Z,102080.01
2018-01-23T07:50:48.781Z,102085.52
2018-01-23T07:53:17.862Z,102066.31
2018-01-23T07:55:46.997Z,102076.73
2018-01-23T07:58:15.365Z,102079.16
2018-01-23T08:00:44.411Z,102078.50
2018-01-23T08:03:12.723Z,102078.38
2018-01-23T08:05:41.005Z,102076.20
2018-01-23T08:08:09.406Z,102078.24
2018-01-23T08:10:38.592Z,102075.50
2018-01-23T08:13:07.135Z,102072.58
2018-01-23T08:15:35.425Z,102064.90
2018-01-23T08:18:03.711Z,102070.56
2018-01-23T08:20:32.017Z,102067.28
2018-01-23T08:23:00.313Z,102062.70
2018-01-23T08:25:29.371Z,102071.57
2018-01-23T08:27:57.703Z,102057.84
2018-01-23T08:30:26.772Z,102066.36
2018-01-23T08:32:55.101Z,102069.46
2018-01-23T08:35:23.398Z,102064.36
2018-01-23T08:37:52.062Z,102059.05
2018-01-23T08:40:20.556Z,102062.31
2018-01-23T08:42:48.844Z,102061.39
2018-01-23T08:45:17.169Z,102058.07
2018-01-23T08:47:45.474Z,102053.80
2018-01-23T08:50:15.043Z,102055.20
2018-01-23T08:52:44.150Z,102057.22
2018-01-23T08:55:12.450Z,102062.70
2018-01-23T08:57:40.755Z,102059.38
2018-01-23T09:00:09.853Z,102059.33
2018-01-23T09:02:38.195Z,102050.98
2018-01-23T09:05:06.485Z,102045.92
2018-01-23T09:07:34.789Z,102050.98
2018-01-23T09:10:03.857Z,102052.23
2018-01-23T09:12:32.167Z,102047.89
2018-01-23T09:15:01.241Z,102048.83
2018-01-23T09:17:29.527Z,102052.08
2018-01-23T09:19:57.849Z,102048.83
2018-01-23T09:22:26.171Z,102051.98
2018-01-23T09:24:54.486Z,102049.34
2018-01-23T09:27:22.801Z,102049.73
2018-01-23T09:29:51.143Z,102052.84
2018-01-23T09:32:19.587Z,102042.47
2018-01-23T09:34:47.982Z,102048.72
2018-01-23T09:37:16.287Z,102056.78
2018-01-23T09:39:44.602Z,102054.05
2018-01-23T09:42:12.921Z,102056.55
2018-01-23T09:44:41.214Z,102054.23
2018-01-23T09:47:09.520Z,102060.80
2018-01-23T09:49:37.822Z,102060.05
2018-01-23T09:52:06.884Z,102058.65
2018-01-23T09:54:35.184Z,102076.30
2018-01-23T09:57:03.612Z,102067.98
2018-01-23T09:59:31.902Z,102067.70
2018-01-23T10:02:00.206Z,102071.63
2018-01-23T10:04:28.494Z,102059.46
2018-01-23T10:06:56.908Z,102060.69
2018-01-23T10:09:26.063Z,102060.44
2018-01-23T10:11:54.418Z,102057.27
2018-01-23T10:14:22.744Z,102057.58
2018-01-23T10:16:51.035Z,102058.66
2018-01-23T10:19:19.328Z,102050.29
2018-01-23T10:21:47.616Z,102055.58
2018-01-23T10:24:16.674Z,102049.03
2018-01-23T10:26:45.059Z,102054.63
2018-01-23T10:29:13.375Z,102053.34
2018-01-23T10:31:41.688Z,102055.38
2018-01-23T10:34:09.984Z,102046.61
2018-01-23T10:36:38.272Z,102040.92
2018-01-23T10:39:06.560Z,102042.79
2018-01-23T10:41:34.870Z,102043.37
2018-01-23T10:44:03.163Z,102038.91
2018-01-23T10:46:32.219Z,102034.22
2018-01-23T10:49:00.544Z,102027.86
2018-01-23T10:51:29.590Z,102031.88
2018-01-23T10:53:57.923Z,102025.70
2018-01-23T10:56:26.986Z,102027.61
2018-01-23T10:58:55.302Z,102013.31
2018-01-23T11:01:30.948Z,102014.98
2018-01-23T11:03:59.270Z,102002.52
2018-01-23T11:06:27.594Z,102002.28
2018-01-23T11:08:55.900Z,101988.45
2018-01-23T11:11:24.984Z,101984.36
2018-01-23T11:13:53.287Z,101990.52
2018-01-23T11:16:22.436Z,101978.66
2018-01-23T11:18:50.740Z,101977.59
2018-01-23T11:21:19.047Z,101978.05
2018-01-23T11:23:48.127Z,101963.48
2018-01-23T11:26:16.458Z,101974.60
2018-01-23T11:28:44.770Z,101975.70
2018-01-23T11:31:13.064Z,101970.71
2018-01-23T11:33:41.388Z,101967.62
2018-01-23T11:36:09.692Z,101965.95
2018-01-23T11:38:37.996Z,101963.56
2018-01-23T11:41:06.308Z,101958.13
2018-01-23T11:43:34.611Z,101953.27
2018-01-23T11:46:02.961Z,101949.22
2018-01-23T11:48:31.272Z,101943.77
2018-01-23T11:51:00.335Z,101939.05
2018-01-23T11:53:28.674Z,101935.83
2018-01-23T11:55:56.990Z,101931.86
2018-01-23T11:58:25.304Z,101932.33
2018-01-23T12:00:54.389Z,101922.05
2018-01-23T12:03:22.697Z,101927.31
2018-01-23T12:05:51.770Z,101931.47
2018-01-23T12:08:20.064Z,101921.66
2018-01-23T12:10:49.130Z,101916.77
2018-01-23T12:13:18.213Z,101927.48
2018-01-23T12:15:46.525Z,101914.01
2018-01-23T12:18:14.815Z,101900.41
2018-01-23T12:20:43.126Z,101898.30
2018-01-23T12:23:11.420Z,101888.95
2018-01-23T12:25:39.709Z,101882.31
2018-01-23T12:28:08.006Z,101878.71
2018-01-23T12:30:36.682Z,101878.53
2018-01-23T12:33:04.982Z,101870.23
2018-01-23T12:35:33.344Z,101868.46
2018-01-23T12:38:02.424Z,101869.20
2018-01-23T12:40:30.730Z,101869.96
2018-01-23T12:42:59.402Z,101879.36
2018-01-23T12:45:27.718Z,101885.17
2018-01-23T12:47:56.042Z,101880.95
2018-01-23T12:50:25.110Z,101869.81
2018-01-23T12:52:53.402Z,101882.14
2018-01-23T12:55:21.691Z,101881.41
2018-01-23T12:57:50.001Z,101862.80
2018-01-23T13:00:18.387Z,101862.79
2018-01-23T13:02:46.680Z,101865.57
2018-01-23T13:05:14.993Z,101843.70
2018-01-23T13:07:43.290Z,101852.06
2018-01-23T13:10:11.603Z,101831.19
2018-01-23T13:12:39.920Z,101839.30
2018-01-23T13:15:08.254Z,101836.95
2018-01-23T13:17:37.325Z,101834.38
2018-01-23T13:20:05.618Z,101818.51
2018-01-23T13:22:33.935Z,101819.69
2018-01-23T13:25:02.241Z,101827.88
2018-01-23T13:27:30.550Z,101824.08
2018-01-23T13:29:58.865Z,101817.69
2018-01-23T13:32:27.970Z,101813.69
2018-01-23T13:34:57.412Z,101824.24
2018-01-23T13:37:25.714Z,101812.91
2018-01-23T13:39:54.058Z,101809.66
2018-01-23T13:42:22.364Z,101805.94
2018-01-23T13:44:50.656Z,101800.47
2018-01-23T13:47:18.967Z,101797.80
2018-01-23T13:49:47.289Z,101793.06
2018-01-23T13:52:15.651Z,101788.81
2018-01-23T13:54:44.699Z,101782.82
2018-01-23T13:57:13.018Z,101787.66
2018-01-23T13:59:41.391Z,101792.66
2018-01-23T14:02:09.694Z,101776.31
2018-01-23T14:04:38.828Z,101774.96
2018-01-23T14:07:07.125Z,101784.02
2018-01-23T14:09:35.410Z,101778.86
2018-01-23T14:12:03.701Z,101776.61
2018-01-23T14:14:31.991Z,101767.27
2018-01-23T14:17:00.286Z,101763.03
2018-01-23T14:19:28.579Z,101761.38
2018-01-23T14:21:57.637Z,101756.13
2018-01-23T14:24:25.932Z,101754.20
2018-01-23T14:26:54.224Z,101753.38
2018-01-23T14:29:22.539Z,101754.80
2018-01-23T14:31:50.925Z,101749.30
2018-01-23T14:34:19.216Z,101761.89
2018-01-23T14:36:47.530Z,101755.75
2018-01-23T14:39:15.837Z,101756.89
2018-01-23T14:41:45.560Z,101757.30
2018-01-23T14:44:14.721Z,101753.67
2018-01-23T14:46:43.007Z,101738.59
2018-01-23T14:49:11.345Z,101736.75
2018-01-23T14:51:40.477Z,101740.71
2018-01-23T14:54:09.555Z,101740.20
2018-01-23T14:56:37.887Z,101742.46
2018-01-23T14:59:06.200Z,101733.20
2018-01-23T15:01:34.514Z,101739.97
2018-01-23T15:04:02.848Z,101730.55
2018-01-23T15:06:31.909Z,101735.55
2018-01-23T15:09:00.314Z,101726.26
2018-01-23T15:11:28.612Z,101743.09
2018-01-23T15:13:57.671Z,101727.59
2018-01-23T15:16:25.980Z,101733.42
2018-01-23T15:18:54.294Z,101731.67
2018-01-23T15:21:22.605Z,101739.17
2018-01-23T15:23:50.916Z,101728.42
2018-01-23T15:26:19.203Z,101726.26
2018-01-23T15:28:47.499Z,101735.00
2018-01-23T15:31:16.592Z,101738.92
2018-01-23T15:33:44.881Z,101729.88
2018-01-23T15:36:14.032Z,101731.22
2018-01-23T15:38:42.353Z,101732.55
2018-01-23T15:41:10.665Z,101724.05
2018-01-23T15:43:39.064Z,101709.70
2018-01-23T15:46:07.369Z,101724.63
2018-01-23T15:48:35.663Z,101729.28
2018-01-23T15:51:03.949Z,101728.85
2018-01-23T15:53:32.277Z,101732.01
2018-01-23T15:56:00.583Z,101722.88
2018-01-23T15:58:28.881Z,101732.70
2018-01-23T16:00:57.180Z,101738.79
2018-01-23T16:03:25.481Z,101725.86
2018-01-23T16:05:54.891Z,101722.36
2018-01-23T16:08:24.008Z,101729.61
2018-01-23T16:10:52.325Z,101712.83
2018-01-23T16:13:20.656Z,101728.64
2018-01-23T16:15:49.746Z,101720.75
2018-01-23T16:18:18.972Z,101727.55
2018-01-23T16:20:47.217Z,101696.27
2018-01-23T16:23:15.619Z,101708.52
2018-01-23T16:25:44.679Z,101698.83
2018-01-23T16:28:13.099Z,101709.07
2018-01-23T16:30:42.235Z,101700.42
2018-01-23T16:33:10.607Z,101700.66
2018-01-23T16:35:38.926Z,101712.34
2018-01-23T16:38:07.233Z,101706.33
2018-01-23T16:40:35.564Z,101708.31
2018-01-23T16:43:03.885Z,101705.80
2018-01-23T16:45:32.195Z,101707.47
2018-01-23T16:48:01.293Z,101701.80
2018-01-23T16:50:30.625Z,101702.15
2018-01-23T16:52:58.975Z,101698.91
2018-01-23T16:55:28.037Z,101707.18
2018-01-23T16:57:57.061Z,101706.02
2018-01-23T17:00:26.148Z,101699.94
2018-01-23T17:02:54.478Z,101721.80
2018-01-23T17:05:22.806Z,101699.34
2018-01-23T17:07:51.136Z,101696.33
2018-01-23T17:10:19.466Z,101697.48
2018-01-23T17:12:47.785Z,101681.06
2018-01-23T17:15:16.837Z,101690.16
2018-01-23T17:17:45.861Z,101701.09
2018-01-23T17:20:14.199Z,101691.02
2018-01-23T17:22:42.510Z,101684.76
2018-01-23T17:25:10.835Z,101672.81
2018-01-23T17:27:39.168Z,101663.71
2018-01-23T17:30:07.483Z,101661.13
2018-01-23T17:32:36.580Z,101654.88
2018-01-23T17:35:05.659Z,101662.20
2018-01-23T17:37:34.315Z,101661.10
2018-01-23T17:40:02.656Z,101666.50
2018-01-23T17:42:31.735Z,101660.13
2018-01-23T17:45:00.039Z,101663.87
2018-01-23T17:47:29.239Z,101667.87
2018-01-23T17:49:58.306Z,101661.34
2018-01-23T17:52:26.685Z,101671.44
2018-01-23T17:54:55.919Z,101660.75
2018-01-23T17:57:25.019Z,101656.00
2018-01-23T17:59:54.194Z,101644.83
2018-01-23T18:02:22.551Z,101647.82
2018-01-23T18:04:51.517Z,101655.06
2018-01-23T18:07:19.824Z,101652.39
2018-01-23T18:09:48.146Z,101646.87
2018-01-23T18:12:16.508Z,101648.95
2018-01-23T18:14:44.919Z,101645.86
2018-01-23T18:17:14.033Z,101643.91
2018-01-23T18:19:43.000Z,101655.14
2018-01-23T18:22:12.111Z,101644.38
2018-01-23T18:24:41.253Z,101646.63
2018-01-23T18:27:09.643Z,101635.69
2018-01-23T18:29:37.980Z,101629.16
2018-01-23T18:32:06.309Z,101624.73
2018-01-23T18:34:34.645Z,101641.83
2018-01-23T18:37:02.996Z,101629.42
2018-01-23T18:39:31.349Z,101626.57
2018-01-23T18:41:59.669Z,101631.46
2018-01-23T18:44:27.968Z,101638.47
2018-01-23T18:46:56.542Z,101631.52
2018-01-23T18:49:25.651Z,101652.29
2018-01-23T18:51:53.983Z,101643.36
2018-01-23T18:54:22.283Z,101656.12
2018-01-23T18:56:50.607Z,101636.70
2018-01-23T18:59:18.940Z,101640.39
2018-01-23T19:01:47.317Z,101639.61
2018-01-23T19:04:15.636Z,101636.58
2018-01-23T19:06:43.967Z,101630.31
2018-01-23T19:09:12.288Z,101628.39
2018-01-23T19:11:40.600Z,101621.02
2018-01-23T19:14:08.930Z,101627.22
2018-01-23T19:16:37.237Z,101631.36
2018-01-23T19:19:05.553Z,101625.88
2018-01-23T19:21:35.698Z,101630.63
2018-01-23T19:24:04.032Z,101642.23
2018-01-23T19:26:32.340Z,101634.63
2018-01-23T19:29:01.414Z,101636.98
2018-01-23T19:31:29.804Z,101634.95
2018-01-23T19:33:59.056Z,101629.84
2018-01-23T19:36:27.390Z,101621.92
2018-01-23T19:38:55.932Z,101630.36
2018-01-23T19:41:24.264Z,101626.44
2018-01-23T19:43:52.804Z,101631.69
2018-01-23T19:46:23.098Z,101638.46
2018-01-23T19:48:51.763Z,101635.94
2018-01-23T19:51:20.388Z,101639.44
2018-01-23T19:53:48.834Z,101640.59
2018-01-23T19:56:17.389Z,101639.99
2018-01-23T19:58:46.062Z,101637.05
2018-01-23T20:01:14.691Z,101627.19
2018-01-23T20:03:43.838Z,101630.37
2018-01-23T20:06:12.167Z,101633.16
2018-01-23T20:08:41.240Z,101637.81
2018-01-23T20:11:09.540Z,101627.95
2018-01-23T20:13:37.868Z,101620.49
2018-01-23T20:16:06.961Z,101627.34
2018-01-23T20:18:36.316Z,101620.06
2018-01-23T20:21:04.988Z,101614.13
2018-01-23T20:23:33.606Z,101623.06
2018-01-23T20:26:02.738Z,101621.73
2018-01-23T20:28:31.364Z,101623.06
2018-01-23T20:30:59.973Z,101627.81
2018-01-23T20:33:28.306Z,101635.41
2018-01-23T20:35:57.412Z,101622.25
2018-01-23T20:38:26.495Z,101621.23
2018-01-23T20:40:54.816Z,101614.14
2018-01-23T20:43:23.141Z,101626.49
2018-01-23T20:45:51.446Z,101621.28
2018-01-23T20:48:20.106Z,101640.05
2018-01-23T20:50:48.402Z,101639.68
2018-01-23T20:53:16.706Z,101633.20
2018-01-23T20:55:46.542Z,101637.02
2018-01-23T20:58:14.845Z,101635.83
2018-01-23T21:00:43.160Z,101641.31
2018-01-23T21:03:11.492Z,101642.05
2018-01-23T21:05:39.844Z,101640.07
2018-01-23T21:08:08.154Z,101632.23
2018-01-23T21:10:36.490Z,101628.73
2018-01-23T21:13:05.312Z,101618.73
2018-01-23T21:15:35.321Z,101609.87
2018-01-23T21:18:04.385Z,101620.16
2018-01-23T21:20:32.688Z,101624.47
2018-01-23T21:23:00.991Z,101620.05
2018-01-23T21:25:30.074Z,101628.98
2018-01-23T21:27:58.400Z,101626.50
2018-01-23T21:30:26.983Z,101629.49
2018-01-23T21:32:55.308Z,101624.56
2018-01-23T21:35:23.618Z,101635.05
2018-01-23T21:37:52.718Z,101633.32
2018-01-23T21:40:21.819Z,101632.59
2018-01-23T21:42:50.919Z,101630.48
2018-01-23T21:45:19.280Z,101628.36
2018-01-23T21:47:48.412Z,101640.21
2018-01-23T21:50:17.490Z,101638.36
2018-01-23T21:52:45.790Z,101629.74
2018-01-23T21:55:14.968Z,101626.98
2018-01-23T21:57:43.268Z,101636.02
2018-01-23T22:00:12.444Z,101635.83
2018-01-23T22:02:40.763Z,101632.11
2018-01-23T22:05:09.156Z,101632.94
2018-01-23T22:07:37.460Z,101639.12
2018-01-23T22:10:05.754Z,101644.56
2018-01-23T22:12:34.410Z,101642.30
2018-01-23T22:15:02.722Z,101645.61
2018-01-23T22:17:31.034Z,101628.91
2018-01-23T22:19:59.350Z,101626.06
2018-01-23T22:22:27.660Z,101619.58
2018-01-23T22:24:55.980Z,101627.41
2018-01-23T22:27:24.292Z,101629.39
2018-01-23T22:29:52.610Z,101619.57
2018-01-23T22:32:21.269Z,101626.30
2018-01-23T22:34:49.570Z,101637.11
2018-01-23T22:37:18.016Z,101638.58
2018-01-23T22:39:47.140Z,101645.81
2018-01-23T22:42:15.481Z,101643.19
2018-01-23T22:44:43.864Z,101632.72
2018-01-23T22:47:12.168Z,101614.73
2018-01-23T22:49:41.228Z,101608.23
2018-01-23T22:52:09.625Z,101614.64
2018-01-23T22:54:37.966Z,101609.30
2018-01-23T22:57:06.274Z,101591.31
2018-01-23T22:59:34.633Z,101617.69
2018-01-23T23:02:02.932Z,101599.51
2018-01-23T23:04:31.260Z,101596.84
2018-01-23T23:07:00.326Z,101605.60
2018-01-23T23:09:28.627Z,101616.12
2018-01-23T23:11:58.551Z,101621.70
2018-01-23T23:14:28.441Z,101627.50
2018-01-23T23:16:56.876Z,101631.14
2018-01-23T23:19:25.197Z,101624.23
2018-01-23T23:21:53.500Z,101629.39
2018-01-23T23:24:21.805Z,101634.05
2018-01-23T23:26:50.874Z,101636.03
2018-01-23T23:29:19.187Z,101647.16
2018-01-23T23:31:47.584Z,101638.61
2018-01-23T23:34:15.898Z,101646.87
2018-01-23T23:36:44.232Z,101646.68
2018-01-23T23:39:13.297Z,101660.70
2018-01-23T23:41:41.602Z,101657.30
2018-01-23T23:44:11.505Z,101644.05
2018-01-23T23:46:40.749Z,101651.38
2018-01-23T23:49:09.135Z,101655.62
2018-01-23T23:51:37.451Z,101653.49
2018-01-23T23:54:05.787Z,101650.91
2018-01-23T23:56:34.082Z,101648.88
2018-01-23T23:59:02.407Z,101646.80
